Time;durP1;ratioP1;P1;durP2;ratioP2;P2;SDS_P1;SDS_P2;PMS_P1;PMS_P2;Temp;Humidity;BMP_temperature;BMP_pressure;BME280_temperature;BME280_humidity;BME280_pressure;Samples;Min_cycle;Max_cycle;Signal;HPM_P1;HPM_P2
2024/03/30 00:00:14;;;;;;;;;1.00;1.00;;;;;;;;5050656;28;9696;-85
2024/03/30 00:02:41;;;;;;;;;1.00;1.00;;;;;;;;5064148;28;9825;-84
2024/03/30 00:05:10;;;;;;;;;1.00;1.00;;;;;;;;5058639;28;9647;-83
2024/03/30 00:07:41;;;;;;;;;2.00;2.00;;;;;;;;5051589;28;9557;-84
2024/03/30 00:10:09;;;;;;;;;2.00;2.00;;;;;;;;5052020;28;9755;-86
2024/03/30 00:12:36;;;;;;;;;2.75;2.75;;;;;;;;5052366;28;9771;-84
2024/03/30 00:15:03;;;;;;;;;1.75;1.75;;;;;;;;5056572;28;9824;-83
2024/03/30 00:17:30;;;;;;;;;2.00;2.00;;;;;;;;5057412;28;9781;-85
2024/03/30 00:19:56;;;;;;;;;2.00;2.00;;;;;;;;5057550;28;9878;-84
2024/03/30 00:22:24;;;;;;;;;1.00;1.00;;;;;;;;5057630;28;9740;-86
2024/03/30 00:24:50;;;;;;;;;3.00;1.75;;;;;;;;5058837;28;9714;-84
2024/03/30 00:27:19;;;;;;;;;1.00;1.00;;;;;;;;5056304;28;9672;-83
2024/03/30 00:29:46;;;;;;;;;1.00;1.00;;;;;;;;5055036;28;9630;-84
2024/03/30 00:32:14;;;;;;;;;1.00;1.00;;;;;;;;5048396;28;9589;-83
2024/03/30 00:34:40;;;;;;;;;1.25;1.00;;;;;;;;5051580;28;9601;-83
2024/03/30 00:37:07;;;;;;;;;1.00;1.00;;;;;;;;5053250;28;10477;-84
2024/03/30 00:39:33;;;;;;;;;1.00;1.00;;;;;;;;5053448;28;9567;-83
2024/03/30 00:42:03;;;;;;;;;2.00;2.00;;;;;;;;5051771;28;9572;-84
2024/03/30 00:44:32;;;;;;;;;0.67;0.67;;;;;;;;5051097;28;9527;-84
2024/03/30 00:47:00;;;;;;;;;3.00;1.00;;;;;;;;5051435;28;9520;-83
2024/03/30 00:49:26;;;;;;;;;2.75;2.75;;;;;;;;5060490;28;9562;-85
2024/03/30 00:51:53;;;;;;;;;2.00;2.00;;;;;;;;5072121;28;9537;-82
2024/03/30 00:54:19;;;;;;;;;2.00;2.00;;;;;;;;5049816;28;9569;-84
2024/03/30 00:56:47;;;;;;;;;2.50;2.50;;;;;;;;5050331;28;9791;-84
2024/03/30 00:59:13;;;;;;;;;1.75;1.75;;;;;;;;5050951;28;9568;-84
2024/03/30 01:01:41;;;;;;;;;2.25;2.25;;;;;;;;5052199;28;10238;-83
2024/03/30 01:04:07;;;;;;;;;2.00;2.00;;;;;;;;5052604;28;9626;-84
2024/03/30 01:06:35;;;;;;;;;2.50;2.50;;;;;;;;5051870;28;9776;-83
2024/03/30 01:09:01;;;;;;;;;3.00;3.00;;;;;;;;5037198;28;9730;-83
2024/03/30 01:11:29;;;;;;;;;3.50;3.50;;;;;;;;5049533;28;9705;-85
2024/03/30 01:13:56;;;;;;;;;2.50;2.50;;;;;;;;5048977;28;9704;-84
2024/03/30 01:16:24;;;;;;;;;4.75;3.75;;;;;;;;5049266;28;9777;-85
2024/03/30 01:18:54;;;;;;;;;6.75;4.50;;;;;;;;5049242;28;9771;-84
2024/03/30 01:21:22;;;;;;;;;4.50;4.00;;;;;;;;5049548;28;9781;-85
2024/03/30 01:23:48;;;;;;;;;7.75;6.00;;;;;;;;5049909;28;10565;-84
2024/03/30 01:26:16;;;;;;;;;5.50;5.50;;;;;;;;5045572;28;9950;-85
2024/03/30 01:28:43;;;;;;;;;6.00;6.00;;;;;;;;5053918;28;9954;-83
2024/03/30 01:31:12;;;;;;;;;7.00;4.50;;;;;;;;5054057;28;9869;-83
2024/03/30 01:33:39;;;;;;;;;6.00;6.00;;;;;;;;5062389;28;9885;-83
2024/03/30 01:36:08;;;;;;;;;6.25;6.25;;;;;;;;5056971;28;9883;-82
2024/03/30 01:38:35;;;;;;;;;7.00;7.00;;;;;;;;5055240;28;9946;-84
2024/03/30 01:41:02;;;;;;;;;5.25;5.25;;;;;;;;5038570;28;9945;-82
2024/03/30 01:43:31;;;;;;;;;10.00;8.25;;;;;;;;5055457;28;9965;-83
2024/03/30 01:45:59;;;;;;;;;10.25;7.75;;;;;;;;5056579;28;9962;-83
2024/03/30 01:48:25;;;;;;;;;9.00;9.00;;;;;;;;5055465;28;9912;-82
2024/03/30 01:50:53;;;;;;;;;8.50;8.50;;;;;;;;5055823;28;9938;-84
2024/03/30 01:53:30;;;;;;;;;15.00;12.00;;;;;;;;5055340;28;9993;-85
2024/03/30 01:55:58;;;;;;;;;11.00;11.00;;;;;;;;5055846;28;9869;-85
2024/03/30 01:58:27;;;;;;;;;13.50;11.75;;;;;;;;5056992;28;9956;-83
2024/03/30 02:00:56;;;;;;;;;10.75;10.50;;;;;;;;5056775;28;10019;-84
2024/03/30 02:03:26;;;;;;;;;9.25;9.25;;;;;;;;5060613;28;10051;-84
2024/03/30 02:05:55;;;;;;;;;11.25;9.25;;;;;;;;5062757;28;10060;-83
2024/03/30 02:08:24;;;;;;;;;10.50;10.50;;;;;;;;5062659;28;10053;-84
2024/03/30 02:10:55;;;;;;;;;11.75;11.75;;;;;;;;5062556;28;10093;-86
2024/03/30 02:13:22;;;;;;;;;12.50;10.75;;;;;;;;5062855;28;10091;-86
2024/03/30 02:15:49;;;;;;;;;11.50;11.50;;;;;;;;5062811;28;10091;-84
2024/03/30 02:18:15;;;;;;;;;12.00;11.00;;;;;;;;5061976;28;10127;-84
2024/03/30 02:20:43;;;;;;;;;6.75;6.75;;;;;;;;5059636;28;10171;-84
2024/03/30 02:23:14;;;;;;;;;5.25;5.00;;;;;;;;5056356;28;10299;-85
2024/03/30 02:25:41;;;;;;;;;4.00;4.00;;;;;;;;5057217;28;9958;-83
2024/03/30 02:28:07;;;;;;;;;7.25;5.75;;;;;;;;5058867;28;9855;-82
2024/03/30 02:30:35;;;;;;;;;4.00;4.00;;;;;;;;5058350;28;10782;-82
2024/03/30 02:33:02;;;;;;;;;4.25;3.50;;;;;;;;5056200;28;10178;-84
2024/03/30 02:35:29;;;;;;;;;3.00;3.00;;;;;;;;5054512;28;9944;-86
2024/03/30 02:37:56;;;;;;;;;4.75;4.75;;;;;;;;5047990;28;10165;-84
2024/03/30 02:40:27;;;;;;;;;3.25;3.25;;;;;;;;5049158;28;9934;-87
2024/03/30 02:42:53;;;;;;;;;4.75;4.75;;;;;;;;5050900;28;10095;-87
2024/03/30 02:45:21;;;;;;;;;5.25;5.25;;;;;;;;5051830;28;10102;-86
2024/03/30 02:47:47;;;;;;;;;10.00;7.50;;;;;;;;5051837;28;10176;-83
2024/03/30 02:50:14;;;;;;;;;6.75;6.75;;;;;;;;5053768;28;10244;-86
2024/03/30 02:52:40;;;;;;;;;6.50;6.50;;;;;;;;5054940;28;10173;-83
2024/03/30 02:55:08;;;;;;;;;6.00;6.00;;;;;;;;5054165;28;10197;-82
2024/03/30 02:57:36;;;;;;;;;6.75;6.75;;;;;;;;5052120;28;10164;-83
2024/03/30 03:00:08;;;;;;;;;7.75;7.75;;;;;;;;5051289;28;10108;-82
2024/03/30 03:02:34;;;;;;;;;7.75;7.75;;;;;;;;5050689;28;10151;-85
2024/03/30 03:05:03;;;;;;;;;7.50;7.50;;;;;;;;5051595;28;10300;-84
2024/03/30 03:07:29;;;;;;;;;7.25;7.25;;;;;;;;5051764;28;10203;-83
2024/03/30 03:09:56;;;;;;;;;7.50;6.00;;;;;;;;5050843;28;10194;-85
2024/03/30 03:12:22;;;;;;;;;5.75;5.75;;;;;;;;5039895;28;10177;-84
2024/03/30 03:14:51;;;;;;;;;8.25;6.00;;;;;;;;5051203;28;10908;-84
2024/03/30 03:17:17;;;;;;;;;10.50;7.50;;;;;;;;5045729;28;10024;-83
2024/03/30 03:19:45;;;;;;;;;5.00;5.00;;;;;;;;5051718;28;10158;-85
2024/03/30 03:22:11;;;;;;;;;4.75;4.75;;;;;;;;5051504;28;10147;-82
2024/03/30 03:24:38;;;;;;;;;6.00;5.00;;;;;;;;5054654;28;9962;-83
2024/03/30 03:27:10;;;;;;;;;6.75;6.00;;;;;;;;5063402;28;10032;-83
2024/03/30 03:29:38;;;;;;;;;6.00;4.25;;;;;;;;5066195;28;10281;-84
2024/03/30 03:32:06;;;;;;;;;1.75;1.75;;;;;;;;5037994;28;9982;-85
2024/03/30 03:34:33;;;;;;;;;4.00;4.00;;;;;;;;5051746;28;9939;-83
2024/03/30 03:37:00;;;;;;;;;3.00;3.00;;;;;;;;5050025;28;9972;-83
2024/03/30 03:39:27;;;;;;;;;2.25;2.25;;;;;;;;5051255;28;10063;-82
2024/03/30 03:41:53;;;;;;;;;1.00;1.00;;;;;;;;5048696;28;9921;-83
2024/03/30 03:44:20;;;;;;;;;1.50;1.50;;;;;;;;5050988;28;9871;-83
2024/03/30 03:46:46;;;;;;;;;0.00;0.00;;;;;;;;5051115;28;9832;-84
2024/03/30 03:49:15;;;;;;;;;0.00;0.00;;;;;;;;5050757;28;9706;-86
2024/03/30 03:51:41;;;;;;;;;0.00;0.00;;;;;;;;5052501;28;9863;-83
2024/03/30 03:54:08;;;;;;;;;2.00;0.00;;;;;;;;5055692;28;9862;-86
2024/03/30 03:56:35;;;;;;;;;0.00;0.00;;;;;;;;5055626;28;9934;-85
2024/03/30 03:59:02;;;;;;;;;0.00;0.00;;;;;;;;5056526;28;9865;-83
2024/03/30 04:01:29;;;;;;;;;1.00;0.00;;;;;;;;5056901;28;9829;-82
2024/03/30 04:03:56;;;;;;;;;0.00;0.00;;;;;;;;5057631;28;10102;-82
2024/03/30 04:06:23;;;;;;;;;0.00;0.00;;;;;;;;5057552;28;10039;-83
2024/03/30 04:08:51;;;;;;;;;0.00;0.00;;;;;;;;5056661;28;9955;-82
2024/03/30 04:11:17;;;;;;;;;0.00;0.00;;;;;;;;5051026;28;10171;-84
2024/03/30 04:13:45;;;;;;;;;0.00;0.00;;;;;;;;5051370;28;9871;-82
2024/03/30 04:16:11;;;;;;;;;0.00;0.00;;;;;;;;5052745;28;9773;-82
2024/03/30 04:18:38;;;;;;;;;0.75;0.75;;;;;;;;5054379;28;9810;-87
2024/03/30 04:21:05;;;;;;;;;1.75;0.25;;;;;;;;5035340;28;9777;-82
2024/03/30 04:23:34;;;;;;;;;1.00;1.00;;;;;;;;5049807;28;9857;-82
2024/03/30 04:26:07;;;;;;;;;1.00;1.00;;;;;;;;5047971;28;9690;-83
2024/03/30 04:28:35;;;;;;;;;2.00;1.00;;;;;;;;5049895;28;9829;-82
2024/03/30 04:31:02;;;;;;;;;2.50;1.50;;;;;;;;5049082;28;9678;-84
2024/03/30 04:33:38;;;;;;;;;1.00;1.00;;;;;;;;5050423;28;9881;-82
2024/03/30 04:36:06;;;;;;;;;1.00;1.00;;;;;;;;5041138;28;9866;-83
2024/03/30 04:38:35;;;;;;;;;2.00;1.50;;;;;;;;5050926;28;9925;-80
2024/03/30 04:41:04;;;;;;;;;2.00;2.00;;;;;;;;5052963;28;9985;-84
2024/03/30 04:43:31;;;;;;;;;2.00;2.00;;;;;;;;5053384;28;9875;-83
2024/03/30 04:45:59;;;;;;;;;2.75;2.75;;;;;;;;5052122;28;10002;-83
2024/03/30 04:48:26;;;;;;;;;1.75;1.75;;;;;;;;5047581;28;9927;-85
2024/03/30 04:50:54;;;;;;;;;2.00;2.00;;;;;;;;5049076;28;9874;-82
2024/03/30 04:53:24;;;;;;;;;2.00;2.00;;;;;;;;5048186;28;9960;-82
2024/03/30 04:55:54;;;;;;;;;6.00;4.00;;;;;;;;5049100;28;9884;-84
2024/03/30 04:58:21;;;;;;;;;4.25;4.00;;;;;;;;5047965;28;10156;-84
2024/03/30 05:00:49;;;;;;;;;3.00;3.00;;;;;;;;5047503;28;9891;-83
2024/03/30 05:03:15;;;;;;;;;4.00;4.00;;;;;;;;5048139;28;9919;-85
2024/03/30 05:05:43;;;;;;;;;5.25;4.25;;;;;;;;5038975;28;9868;-84
2024/03/30 05:08:10;;;;;;;;;2.00;2.00;;;;;;;;5031283;28;9970;-86
2024/03/30 05:10:37;;;;;;;;;9.00;4.50;;;;;;;;5031322;28;9944;-83
2024/03/30 05:13:05;;;;;;;;;5.00;5.00;;;;;;;;5048375;28;9945;-82
2024/03/30 05:15:33;;;;;;;;;6.25;6.25;;;;;;;;5048401;28;10107;-83
2024/03/30 05:17:59;;;;;;;;;11.25;9.00;;;;;;;;5048611;28;10207;-82
2024/03/30 05:20:50;;;;;;;;;9.00;8.50;;;;;;;;5048200;28;11015;-82
2024/03/30 05:23:21;;;;;;;;;8.00;6.00;;;;;;;;5039423;28;10877;-82
2024/03/30 05:25:48;;;;;;;;;13.50;13.50;;;;;;;;5048453;28;10378;-82
2024/03/30 05:28:18;;;;;;;;;12.25;10.75;;;;;;;;5049155;28;10401;-82
2024/03/30 05:30:48;;;;;;;;;12.25;10.50;;;;;;;;5048080;28;10189;-84
2024/03/30 05:33:15;;;;;;;;;9.25;9.25;;;;;;;;5048599;28;10314;-82
2024/03/30 05:35:42;;;;;;;;;11.75;10.75;;;;;;;;5048546;28;10468;-85
2024/03/30 05:38:08;;;;;;;;;7.75;7.75;;;;;;;;5049042;28;10360;-81
2024/03/30 05:40:36;;;;;;;;;10.25;10.25;;;;;;;;5051898;28;10366;-83
2024/03/30 05:43:04;;;;;;;;;14.50;12.50;;;;;;;;5053002;28;10396;-80
2024/03/30 05:45:33;;;;;;;;;13.00;13.00;;;;;;;;5054460;28;10278;-82
2024/03/30 05:48:04;;;;;;;;;13.50;12.00;;;;;;;;5056143;28;10274;-82
2024/03/30 05:50:32;;;;;;;;;11.50;11.50;;;;;;;;5054026;28;10331;-84
2024/03/30 05:52:59;;;;;;;;;13.75;13.25;;;;;;;;5049561;28;10418;-83
2024/03/30 05:55:28;;;;;;;;;14.75;11.75;;;;;;;;5055528;28;10283;-81
2024/03/30 05:57:54;;;;;;;;;13.00;11.00;;;;;;;;5049346;28;10215;-82
2024/03/30 06:00:24;;;;;;;;;14.50;11.50;;;;;;;;5051318;28;10345;-82
2024/03/30 06:02:51;;;;;;;;;15.00;14.50;;;;;;;;5050678;28;10422;-81
2024/03/30 06:05:20;;;;;;;;;15.25;13.50;;;;;;;;5055362;28;10512;-82
2024/03/30 06:07:47;;;;;;;;;16.25;15.50;;;;;;;;5064859;28;10412;-82
2024/03/30 06:10:14;;;;;;;;;18.50;14.00;;;;;;;;5051087;28;10462;-82
2024/03/30 06:12:40;;;;;;;;;16.25;15.75;;;;;;;;5051964;28;10334;-80
2024/03/30 06:15:11;;;;;;;;;13.25;13.25;;;;;;;;5051396;28;10575;-87
2024/03/30 06:17:38;;;;;;;;;12.25;10.50;;;;;;;;5050449;28;10449;-83
2024/03/30 06:20:09;;;;;;;;;19.50;17.50;;;;;;;;5051689;28;10338;-83
2024/03/30 06:22:38;;;;;;;;;13.50;13.50;;;;;;;;5051512;28;10514;-84
2024/03/30 06:25:06;;;;;;;;;16.25;14.00;;;;;;;;5051858;28;10468;-83
2024/03/30 06:27:33;;;;;;;;;14.50;14.50;;;;;;;;5051720;28;10541;-82
2024/03/30 06:30:03;;;;;;;;;12.00;12.00;;;;;;;;5053869;28;10413;-82
2024/03/30 06:32:29;;;;;;;;;11.50;11.50;;;;;;;;5051880;28;10510;-80
2024/03/30 06:35:02;;;;;;;;;19.00;18.00;;;;;;;;5052533;28;10588;-78
2024/03/30 06:37:30;;;;;;;;;13.25;13.25;;;;;;;;5052970;28;10670;-79
2024/03/30 06:45:26;;;;;;;;;9.50;9.50;;;;;;;;5049868;28;10552;-78
2024/03/30 06:47:52;;;;;;;;;10.50;9.25;;;;;;;;5050390;28;10430;-79
2024/03/30 06:50:19;;;;;;;;;11.00;10.00;;;;;;;;5049665;28;11221;-79
2024/03/30 06:52:47;;;;;;;;;11.25;10.00;;;;;;;;5050279;28;10650;-79
2024/03/30 06:55:15;;;;;;;;;8.75;8.75;;;;;;;;5049758;28;10570;-78
2024/03/30 06:57:41;;;;;;;;;11.00;9.00;;;;;;;;5049972;28;10557;-78
2024/03/30 07:00:09;;;;;;;;;5.75;5.75;;;;;;;;5049511;28;10719;-78
2024/03/30 07:02:35;;;;;;;;;7.50;7.50;;;;;;;;5050240;28;10577;-78
2024/03/30 07:05:03;;;;;;;;;9.00;9.00;;;;;;;;5049441;28;10511;-79
2024/03/30 07:07:29;;;;;;;;;9.00;7.25;;;;;;;;5049875;28;10549;-79
2024/03/30 07:09:59;;;;;;;;;8.50;7.75;;;;;;;;5049698;28;10513;-79
2024/03/30 07:12:25;;;;;;;;;3.50;3.50;;;;;;;;5049508;28;10493;-78
2024/03/30 07:14:52;;;;;;;;;10.50;7.50;;;;;;;;5050071;28;10408;-79
2024/03/30 07:17:18;;;;;;;;;4.50;4.50;;;;;;;;5049711;28;10483;-79
2024/03/30 07:19:46;;;;;;;;;6.00;4.25;;;;;;;;5049857;28;10315;-79
2024/03/30 07:22:12;;;;;;;;;5.75;4.50;;;;;;;;5048623;28;10419;-79
2024/03/30 07:24:42;;;;;;;;;4.25;4.25;;;;;;;;5050139;28;10419;-78
2024/03/30 07:27:10;;;;;;;;;5.50;4.00;;;;;;;;5049706;28;10473;-78
2024/03/30 07:29:37;;;;;;;;;4.00;4.00;;;;;;;;5050674;28;10339;-78
2024/03/30 07:32:12;;;;;;;;;4.00;4.00;;;;;;;;5053040;28;10182;-79
2024/03/30 07:34:46;;;;;;;;;6.00;5.00;;;;;;;;5055381;28;10247;-78
2024/03/30 07:37:13;;;;;;;;;4.50;4.50;;;;;;;;5054490;28;10350;-79
2024/03/30 07:39:41;;;;;;;;;3.00;3.00;;;;;;;;5055789;28;10118;-77
2024/03/30 07:42:11;;;;;;;;;4.50;4.50;;;;;;;;5055384;28;10167;-77
2024/03/30 07:44:40;;;;;;;;;3.00;3.00;;;;;;;;5055735;28;10273;-78
2024/03/30 07:47:10;;;;;;;;;4.00;4.00;;;;;;;;5054169;28;10681;-78
2024/03/30 07:49:37;;;;;;;;;2.00;2.00;;;;;;;;5049865;28;10882;-77
2024/03/30 07:52:05;;;;;;;;;3.00;3.00;;;;;;;;5049548;28;10164;-78
2024/03/30 07:55:24;;;;;;;;;2.00;2.00;;;;;;;;5050367;28;11013;-78
2024/03/30 07:57:54;;;;;;;;;2.00;2.00;;;;;;;;5045205;28;10252;-78
2024/03/30 08:00:21;;;;;;;;;3.00;3.00;;;;;;;;5048839;28;10155;-79
2024/03/30 08:02:47;;;;;;;;;3.00;3.00;;;;;;;;5048696;28;10111;-77
2024/03/30 08:05:15;;;;;;;;;4.00;3.00;;;;;;;;5048746;28;10107;-78
2024/03/30 08:07:41;;;;;;;;;3.75;3.75;;;;;;;;5048469;28;10154;-77
2024/03/30 08:10:11;;;;;;;;;4.00;4.00;;;;;;;;5049224;28;10193;-77
2024/03/30 08:12:40;;;;;;;;;4.00;4.00;;;;;;;;5048645;28;10333;-78
2024/03/30 08:15:17;;;;;;;;;6.25;5.75;;;;;;;;5049820;28;10228;-78
2024/03/30 08:17:43;;;;;;;;;4.75;4.50;;;;;;;;5050997;28;11094;-78
2024/03/30 08:20:11;;;;;;;;;5.00;5.00;;;;;;;;5052069;28;11128;-78
2024/03/30 08:22:40;;;;;;;;;10.50;8.00;;;;;;;;5051973;28;10356;-78
2024/03/30 09:41:52;;;;;;;;;0.25;0.25;;;;;;;;4998029;28;9988;-77
2024/03/30 09:44:20;;;;;;;;;1.00;1.00;;;;;;;;5004044;28;10013;-77
2024/03/30 09:46:48;;;;;;;;;1.00;1.00;;;;;;;;5006359;28;9903;-80
2024/03/30 09:49:15;;;;;;;;;1.00;0.25;;;;;;;;5011389;28;10024;-76
2024/03/30 09:51:46;;;;;;;;;1.00;1.00;;;;;;;;5006517;28;9943;-82
2024/03/30 09:54:13;;;;;;;;;1.00;1.00;;;;;;;;5007918;28;10119;-81
2024/03/30 09:56:43;;;;;;;;;1.50;1.25;;;;;;;;5008950;28;10067;-82
2024/03/30 09:59:10;;;;;;;;;2.00;2.00;;;;;;;;5008566;28;9966;-80
2024/03/30 10:01:39;;;;;;;;;2.25;2.25;;;;;;;;5012349;28;10061;-81
2024/03/30 10:04:06;;;;;;;;;1.00;1.00;;;;;;;;5007570;28;9963;-80
2024/03/30 10:06:40;;;;;;;;;2.00;2.00;;;;;;;;5006212;28;10250;-79
2024/03/30 10:09:10;;;;;;;;;2.50;2.50;;;;;;;;5006098;28;10129;-79
2024/03/30 10:11:38;;;;;;;;;3.00;3.00;;;;;;;;5000093;28;10197;-77
2024/03/30 10:14:15;;;;;;;;;1.75;1.75;;;;;;;;4998806;28;10191;-79
2024/03/30 10:16:48;;;;;;;;;3.00;3.00;;;;;;;;5011457;28;10046;-78
2024/03/30 10:19:19;;;;;;;;;1.00;1.00;;;;;;;;5011547;28;10054;-80
2024/03/30 10:21:48;;;;;;;;;2.00;2.00;;;;;;;;5002371;28;10015;-77
2024/03/30 10:24:16;;;;;;;;;1.00;1.00;;;;;;;;4993436;28;9936;-78
2024/03/30 10:26:44;;;;;;;;;2.00;2.00;;;;;;;;4993950;28;9937;-78
2024/03/30 10:29:10;;;;;;;;;2.00;2.00;;;;;;;;4998712;28;10050;-78
2024/03/30 10:31:41;;;;;;;;;1.00;1.00;;;;;;;;5011588;28;9828;-78
2024/03/30 10:34:09;;;;;;;;;2.00;1.00;;;;;;;;5007341;28;10138;-79
2024/03/30 10:36:38;;;;;;;;;3.50;2.00;;;;;;;;5003231;28;9996;-79
2024/03/30 10:39:04;;;;;;;;;1.00;1.00;;;;;;;;5004546;28;9947;-79
2024/03/30 10:41:32;;;;;;;;;3.00;3.00;;;;;;;;5004244;28;10549;-78
2024/03/30 10:43:58;;;;;;;;;2.25;2.25;;;;;;;;5005410;28;9816;-79
2024/03/30 10:46:25;;;;;;;;;1.50;1.50;;;;;;;;4993689;28;9715;-79
2024/03/30 10:48:52;;;;;;;;;1.50;1.50;;;;;;;;4999569;28;10564;-80
2024/03/30 10:51:24;;;;;;;;;2.00;2.00;;;;;;;;5010896;28;9626;-79
2024/03/30 10:53:50;;;;;;;;;2.00;2.00;;;;;;;;4999676;28;9661;-79
2024/03/30 10:56:20;;;;;;;;;1.00;1.00;;;;;;;;4999094;28;9577;-78
2024/03/30 10:58:48;;;;;;;;;1.00;1.00;;;;;;;;5002320;28;9484;-79
2024/03/30 11:01:15;;;;;;;;;1.00;1.00;;;;;;;;5006190;28;9583;-78
2024/03/30 11:03:42;;;;;;;;;1.75;1.75;;;;;;;;5010989;28;9660;-79
2024/03/30 11:06:11;;;;;;;;;2.00;2.00;;;;;;;;5007985;28;9526;-77
2024/03/30 11:08:40;;;;;;;;;1.00;1.00;;;;;;;;4999633;28;9486;-77
2024/03/30 11:11:07;;;;;;;;;1.00;1.00;;;;;;;;4997837;28;9570;-78
2024/03/30 11:13:33;;;;;;;;;2.00;2.00;;;;;;;;5010986;28;9825;-79
2024/03/30 11:16:01;;;;;;;;;2.50;2.50;;;;;;;;4998710;28;9704;-78
2024/03/30 11:18:34;;;;;;;;;4.00;2.25;;;;;;;;5010576;28;9799;-78
2024/03/30 11:21:08;;;;;;;;;5.50;5.50;;;;;;;;5010645;28;9861;-78
2024/03/30 11:23:42;;;;;;;;;6.50;6.50;;;;;;;;5011044;28;10999;-78
2024/03/30 11:26:10;;;;;;;;;2.50;2.50;;;;;;;;5012863;28;10096;-83
2024/03/30 11:28:43;;;;;;;;;0.00;0.00;;;;;;;;5002585;28;9880;-85
2024/03/30 11:31:17;;;;;;;;;0.00;0.00;;;;;;;;4994651;28;9353;-83
2024/03/30 11:33:50;;;;;;;;;1.00;1.00;;;;;;;;5009352;28;9193;-80
2024/03/30 11:36:22;;;;;;;;;1.00;1.00;;;;;;;;5012974;28;9028;-79
2024/03/30 11:38:59;;;;;;;;;1.00;1.00;;;;;;;;5001834;28;8991;-78
2024/03/30 11:41:26;;;;;;;;;1.00;1.00;;;;;;;;5013071;28;8945;-82
2024/03/30 11:43:58;;;;;;;;;3.75;1.00;;;;;;;;5010878;28;8975;-80
2024/03/30 11:46:27;;;;;;;;;1.00;1.00;;;;;;;;5010090;28;8869;-83
2024/03/30 11:48:53;;;;;;;;;1.00;1.00;;;;;;;;5010817;28;8942;-80
2024/03/30 11:51:26;;;;;;;;;3.67;1.67;;;;;;;;5010741;28;8940;-80
2024/03/30 11:53:55;;;;;;;;;2.25;2.25;;;;;;;;5000614;28;9078;-82
2024/03/30 11:56:22;;;;;;;;;1.00;1.00;;;;;;;;5010175;28;8872;-82
2024/03/30 11:58:58;;;;;;;;;2.00;2.00;;;;;;;;5010798;28;8864;-81
2024/03/30 12:01:25;;;;;;;;;2.00;2.00;;;;;;;;4998740;28;8867;-81
2024/03/30 12:03:54;;;;;;;;;1.00;1.00;;;;;;;;5009755;28;9532;-82
2024/03/30 12:06:22;;;;;;;;;2.00;2.00;;;;;;;;5009494;28;8844;-80
2024/03/30 12:08:49;;;;;;;;;2.75;2.75;;;;;;;;5009519;28;8872;-80
2024/03/30 12:11:17;;;;;;;;;3.75;3.75;;;;;;;;4996670;28;8840;-79
2024/03/30 12:13:43;;;;;;;;;2.00;2.00;;;;;;;;5010204;28;8971;-78
2024/03/30 12:16:12;;;;;;;;;3.00;3.00;;;;;;;;5007861;28;8891;-81
2024/03/30 12:18:42;;;;;;;;;2.00;2.00;;;;;;;;5011345;28;8987;-77
2024/03/30 12:21:12;;;;;;;;;2.25;2.25;;;;;;;;5004711;28;9597;-77
2024/03/30 12:23:38;;;;;;;;;2.00;2.00;;;;;;;;5002825;28;8860;-76
2024/03/30 12:26:06;;;;;;;;;4.50;4.50;;;;;;;;5003299;28;8858;-78
2024/03/30 12:28:34;;;;;;;;;1.50;1.50;;;;;;;;4991012;28;8893;-77
2024/03/30 12:31:03;;;;;;;;;2.00;2.00;;;;;;;;5006499;28;8823;-79
2024/03/30 12:33:30;;;;;;;;;2.50;2.50;;;;;;;;4998460;28;9655;-77
2024/03/30 12:35:59;;;;;;;;;1.50;1.50;;;;;;;;4994746;28;8890;-78
2024/03/30 12:38:25;;;;;;;;;2.00;2.00;;;;;;;;4999286;28;9688;-77
2024/03/30 12:40:53;;;;;;;;;2.25;2.00;;;;;;;;5012288;28;8841;-76
2024/03/30 12:43:19;;;;;;;;;1.50;1.00;;;;;;;;5003519;28;8894;-78
2024/03/30 12:45:48;;;;;;;;;2.00;1.00;;;;;;;;4997583;28;8859;-77
2024/03/30 12:48:14;;;;;;;;;1.25;1.25;;;;;;;;4998222;28;8982;-77
2024/03/30 12:50:43;;;;;;;;;1.25;1.00;;;;;;;;5008329;28;8861;-77
2024/03/30 12:53:12;;;;;;;;;1.75;1.75;;;;;;;;5001280;28;8852;-76
2024/03/30 12:55:39;;;;;;;;;1.50;1.50;;;;;;;;5002123;28;8870;-76
2024/03/30 12:58:06;;;;;;;;;2.00;1.00;;;;;;;;5002126;28;9638;-76
2024/03/30 13:00:33;;;;;;;;;2.00;1.00;;;;;;;;4993836;28;8804;-78
2024/03/30 13:03:01;;;;;;;;;1.00;1.00;;;;;;;;4981926;28;8874;-77
2024/03/30 13:05:31;;;;;;;;;1.00;1.00;;;;;;;;4985173;28;8851;-79
2024/03/30 13:07:59;;;;;;;;;1.50;1.50;;;;;;;;4988742;28;9649;-79
2024/03/30 13:10:28;;;;;;;;;1.00;1.00;;;;;;;;4988491;28;9613;-78
2024/03/30 13:12:56;;;;;;;;;1.00;1.00;;;;;;;;4989104;28;8938;-77
2024/03/30 13:15:23;;;;;;;;;0.50;0.50;;;;;;;;4984809;28;8874;-75
2024/03/30 13:17:49;;;;;;;;;2.00;2.00;;;;;;;;4986901;28;8851;-74
2024/03/30 13:20:20;;;;;;;;;1.75;1.75;;;;;;;;4988408;28;8859;-75
2024/03/30 13:22:49;;;;;;;;;2.00;2.00;;;;;;;;4988520;28;8871;-76
2024/03/30 13:25:16;;;;;;;;;2.00;2.00;;;;;;;;4982221;28;8854;-75
2024/03/30 13:27:44;;;;;;;;;1.00;1.00;;;;;;;;4989155;28;8904;-76
2024/03/30 13:30:12;;;;;;;;;2.00;2.00;;;;;;;;4989619;28;8866;-79
2024/03/30 13:32:40;;;;;;;;;1.50;1.50;;;;;;;;4983558;28;8904;-75
2024/03/30 13:35:07;;;;;;;;;1.25;1.25;;;;;;;;4971308;28;8873;-76
2024/03/30 13:37:36;;;;;;;;;1.00;1.00;;;;;;;;4984833;28;8964;-77
2024/03/30 13:40:04;;;;;;;;;1.00;1.00;;;;;;;;4972365;28;8874;-79
2024/03/30 13:42:33;;;;;;;;;2.00;2.00;;;;;;;;4971922;28;8862;-76
2024/03/30 13:45:00;;;;;;;;;2.00;2.00;;;;;;;;4975576;28;8885;-78
2024/03/30 13:47:27;;;;;;;;;2.00;2.00;;;;;;;;4976671;28;8855;-77
2024/03/30 13:49:56;;;;;;;;;1.00;1.00;;;;;;;;4988285;28;8901;-75
2024/03/30 13:52:23;;;;;;;;;1.50;1.50;;;;;;;;4987597;28;8883;-77
2024/03/30 13:54:53;;;;;;;;;1.25;1.25;;;;;;;;4977607;28;8855;-77
2024/03/30 13:57:20;;;;;;;;;1.00;1.00;;;;;;;;4987984;28;8858;-76
2024/03/30 13:59:47;;;;;;;;;1.50;1.50;;;;;;;;4987590;28;8928;-76
2024/03/30 14:02:17;;;;;;;;;1.50;1.50;;;;;;;;4998488;28;8829;-77
2024/03/30 14:04:43;;;;;;;;;0.50;0.50;;;;;;;;4996824;28;8944;-76
2024/03/30 14:07:10;;;;;;;;;0.75;0.00;;;;;;;;4998636;28;8998;-77
2024/03/30 14:09:37;;;;;;;;;1.25;1.25;;;;;;;;4996486;28;9594;-77
2024/03/30 14:12:06;;;;;;;;;2.00;2.00;;;;;;;;4998605;28;8870;-77
2024/03/30 14:14:32;;;;;;;;;3.00;1.00;;;;;;;;4995022;28;9695;-77
2024/03/30 14:17:05;;;;;;;;;2.00;2.00;;;;;;;;4998933;28;8870;-77
2024/03/30 14:19:34;;;;;;;;;1.50;1.50;;;;;;;;5004429;28;8853;-76
2024/03/30 14:22:01;;;;;;;;;2.00;2.00;;;;;;;;4994363;28;8885;-76
2024/03/30 14:24:28;;;;;;;;;2.50;2.50;;;;;;;;5006094;28;8980;-76
2024/03/30 14:26:55;;;;;;;;;4.75;4.00;;;;;;;;4998651;28;8994;-77
2024/03/30 14:29:24;;;;;;;;;5.25;4.00;;;;;;;;5001452;28;8863;-76
2024/03/30 14:31:50;;;;;;;;;3.00;3.00;;;;;;;;5007648;28;8826;-75
2024/03/30 14:34:17;;;;;;;;;3.50;3.50;;;;;;;;5005582;28;8981;-75
2024/03/30 14:36:45;;;;;;;;;2.75;2.75;;;;;;;;5010534;28;8870;-75
2024/03/30 14:39:13;;;;;;;;;3.00;3.00;;;;;;;;5009661;28;8855;-75
2024/03/30 14:41:43;;;;;;;;;6.00;4.50;;;;;;;;5010346;28;8851;-75
2024/03/30 14:44:32;;;;;;;;;4.00;4.00;;;;;;;;5003629;28;9091;-74
2024/03/30 14:47:00;;;;;;;;;4.00;4.00;;;;;;;;5008335;28;8866;-76
2024/03/30 14:49:28;;;;;;;;;3.25;3.25;;;;;;;;5007518;28;8887;-75
2024/03/30 14:51:54;;;;;;;;;3.00;3.00;;;;;;;;5004935;28;8893;-77
2024/03/30 14:54:21;;;;;;;;;6.00;4.25;;;;;;;;5009782;28;8851;-76
2024/03/30 14:56:47;;;;;;;;;3.75;3.75;;;;;;;;5010026;28;8885;-75
2024/03/30 14:59:14;;;;;;;;;4.75;3.50;;;;;;;;5010047;28;9088;-75
2024/03/30 15:01:42;;;;;;;;;4.00;4.00;;;;;;;;5010157;28;8845;-75
2024/03/30 15:04:09;;;;;;;;;3.00;3.00;;;;;;;;5010596;28;8952;-76
2024/03/30 15:06:36;;;;;;;;;1.75;1.75;;;;;;;;5001756;28;8873;-75
2024/03/30 15:09:06;;;;;;;;;1.50;1.50;;;;;;;;5012353;28;8886;-75
2024/03/30 15:11:32;;;;;;;;;2.00;2.00;;;;;;;;4999397;28;8858;-75
2024/03/30 15:14:00;;;;;;;;;1.00;1.00;;;;;;;;5011864;28;8879;-73
2024/03/30 15:16:26;;;;;;;;;2.00;2.00;;;;;;;;4999568;28;8855;-75
2024/03/30 15:18:55;;;;;;;;;1.75;1.75;;;;;;;;5011739;28;8858;-77
2024/03/30 15:21:21;;;;;;;;;2.00;2.00;;;;;;;;5009936;28;8913;-75
2024/03/30 15:23:51;;;;;;;;;1.00;1.00;;;;;;;;4998052;28;8884;-75
2024/03/30 15:26:18;;;;;;;;;1.00;1.00;;;;;;;;4997954;28;8851;-74
2024/03/30 15:28:45;;;;;;;;;3.00;3.00;;;;;;;;5009188;28;8888;-76
2024/03/30 15:33:58;;;;;;;;;1.00;1.00;;;;;;;;5006825;28;8847;-76
2024/03/30 15:36:26;;;;;;;;;1.50;1.50;;;;;;;;5009617;28;8862;-76
2024/03/30 15:38:53;;;;;;;;;1.00;1.00;;;;;;;;4996502;28;9659;-75
2024/03/30 15:41:21;;;;;;;;;1.00;1.00;;;;;;;;4998421;28;8861;-74
2024/03/30 15:43:50;;;;;;;;;3.50;2.00;;;;;;;;5006874;28;9012;-73
2024/03/30 15:46:18;;;;;;;;;1.75;1.75;;;;;;;;5009790;28;8859;-73
2024/03/30 15:48:47;;;;;;;;;2.00;2.00;;;;;;;;5009174;28;8865;-73
2024/03/30 15:51:15;;;;;;;;;2.00;2.00;;;;;;;;5009391;28;8863;-75
2024/03/30 15:53:43;;;;;;;;;2.00;2.00;;;;;;;;5003467;28;8877;-75
2024/03/30 15:56:12;;;;;;;;;1.25;1.25;;;;;;;;5002448;28;8878;-75
2024/03/30 15:58:39;;;;;;;;;1.00;1.00;;;;;;;;4997183;28;9337;-75
2024/03/30 16:01:08;;;;;;;;;1.00;1.00;;;;;;;;5008008;28;8819;-74
2024/03/30 16:03:35;;;;;;;;;3.75;2.75;;;;;;;;5008555;28;9750;-76
2024/03/30 16:06:04;;;;;;;;;1.00;1.00;;;;;;;;5008504;28;8848;-76
2024/03/30 16:08:32;;;;;;;;;4.00;4.00;;;;;;;;5008472;28;8840;-76
2024/03/30 16:11:00;;;;;;;;;3.00;3.00;;;;;;;;5007592;28;8844;-76
2024/03/30 16:13:28;;;;;;;;;0.00;0.00;;;;;;;;5008848;28;8999;-76
2024/03/30 16:15:55;;;;;;;;;2.00;2.00;;;;;;;;5006190;28;8871;-75
2024/03/30 16:18:22;;;;;;;;;2.00;2.00;;;;;;;;4998414;28;8997;-77